createdAt,value
2017-06-11T00:00:14.149Z,99.99
2017-06-11T00:01:24.415Z,99.99
2017-06-11T00:02:34.674Z,99.99
2017-06-11T00:03:44.626Z,99.99
2017-06-11T00:04:54.886Z,99.99
2017-06-11T00:06:05.142Z,99.99
2017-06-11T00:07:15.099Z,99.99
2017-06-11T00:08:25.048Z,99.99
2017-06-11T00:09:35.313Z,99.99
2017-06-11T00:10:45.574Z,99.99
2017-06-11T00:11:55.834Z,99.99
2017-06-11T00:13:06.097Z,99.99
2017-06-11T00:14:16.360Z,99.99
2017-06-11T00:15:26.625Z,99.99
2017-06-11T00:16:36.888Z,99.99
2017-06-11T00:17:46.884Z,99.99
2017-06-11T00:18:56.826Z,99.99
2017-06-11T00:20:06.783Z,99.99
2017-06-11T00:21:17.042Z,99.99
2017-06-11T00:22:26.683Z,99.99
2017-06-11T00:23:40.686Z,99.99
2017-06-11T00:24:50.949Z,99.99
2017-06-11T00:26:01.207Z,99.99
2017-06-11T00:27:11.466Z,99.99
2017-06-11T00:28:21.730Z,99.99
2017-06-11T00:29:31.991Z,99.99
2017-06-11T00:30:42.256Z,99.99
2017-06-11T00:31:52.520Z,99.99
2017-06-11T00:33:02.470Z,99.99
2017-06-11T00:34:12.734Z,99.99
2017-06-11T00:35:22.996Z,99.99
2017-06-11T00:36:33.259Z,99.99
2017-06-11T00:37:43.527Z,99.99
2017-06-11T00:38:53.474Z,99.99
2017-06-11T00:40:03.742Z,99.99
2017-06-11T00:41:14.013Z,99.99
2017-06-11T00:42:24.272Z,99.99
2017-06-11T00:43:34.526Z,99.99
2017-06-11T00:44:44.792Z,99.99
2017-06-11T00:45:55.053Z,99.99
2017-06-11T00:47:05.006Z,99.99
2017-06-11T00:48:15.267Z,99.99
2017-06-11T00:49:25.220Z,99.99
2017-06-11T00:50:35.484Z,99.99
2017-06-11T00:51:45.744Z,99.99
2017-06-11T00:52:56.003Z,99.99
2017-06-11T00:54:05.947Z,99.99
2017-06-11T00:55:15.894Z,99.99
2017-06-11T00:56:26.161Z,99.99
2017-06-11T00:57:36.103Z,99.99
2017-06-11T00:58:46.371Z,99.99
2017-06-11T00:59:56.630Z,99.99
2017-06-11T01:01:06.896Z,99.99
2017-06-11T01:02:17.160Z,99.99
2017-06-11T01:03:27.433Z,99.99
2017-06-11T01:04:37.379Z,99.99
2017-06-11T01:05:47.648Z,99.99
2017-06-11T01:06:57.927Z,99.99
2017-06-11T01:08:07.879Z,99.99
2017-06-11T01:09:18.140Z,99.99
2017-06-11T01:10:28.405Z,99.99
2017-06-11T01:11:38.666Z,99.99
2017-06-11T01:12:48.926Z,99.99
2017-06-11T01:13:58.872Z,99.99
2017-06-11T01:15:09.140Z,99.99
2017-06-11T01:16:19.091Z,99.99
2017-06-11T01:17:29.045Z,99.99
2017-06-11T01:18:39.301Z,99.99
2017-06-11T01:19:49.251Z,99.99
2017-06-11T01:20:59.518Z,99.99
2017-06-11T01:22:09.471Z,99.99
2017-06-11T01:23:19.735Z,99.99
2017-06-11T01:24:29.994Z,99.99
2017-06-11T01:25:39.629Z,99.99
2017-06-11T01:26:49.898Z,99.99
2017-06-11T01:28:00.166Z,99.99
2017-06-11T01:29:10.428Z,99.99
2017-06-11T01:30:20.700Z,99.99
2017-06-11T01:31:30.969Z,99.99
2017-06-11T01:32:40.920Z,99.99
2017-06-11T01:33:50.870Z,99.99
2017-06-11T01:35:01.132Z,99.99
2017-06-11T01:36:11.388Z,99.99
2017-06-11T01:37:21.646Z,99.99
2017-06-11T01:38:31.911Z,99.99
2017-06-11T01:39:41.879Z,99.99
2017-06-11T01:40:52.148Z,99.99
2017-06-11T01:42:02.415Z,99.99
2017-06-11T01:43:12.368Z,99.99
2017-06-11T01:44:22.321Z,99.99
2017-06-11T01:45:32.587Z,99.99
2017-06-11T01:46:42.848Z,99.99
2017-06-11T01:47:53.107Z,99.99
2017-06-11T01:49:03.100Z,99.99
2017-06-11T01:50:13.359Z,99.99
2017-06-11T01:51:23.312Z,99.99
2017-06-11T01:52:33.570Z,99.99
2017-06-11T01:53:43.830Z,99.99
2017-06-11T01:54:54.111Z,99.99
2017-06-11T01:56:04.372Z,99.99
2017-06-11T01:57:14.324Z,99.99
2017-06-11T01:58:24.586Z,99.99
2017-06-11T01:59:34.851Z,99.99
2017-06-11T02:00:45.127Z,99.99
2017-06-11T02:01:55.393Z,99.99
2017-06-11T02:03:05.537Z,99.99
2017-06-11T02:04:15.485Z,99.99
2017-06-11T02:05:25.120Z,99.99
2017-06-11T02:06:35.069Z,99.99
2017-06-11T02:07:45.332Z,99.99
2017-06-11T02:08:59.597Z,99.99
2017-06-11T02:10:09.865Z,99.99
2017-06-11T02:11:20.127Z,99.99
2017-06-11T02:12:30.408Z,99.99
2017-06-11T02:13:40.674Z,99.99
2017-06-11T02:14:51.183Z,99.99
2017-06-11T02:16:01.444Z,99.99
2017-06-11T02:17:11.709Z,99.99
2017-06-11T02:18:21.986Z,99.99
2017-06-11T02:19:32.252Z,99.99
2017-06-11T02:20:42.545Z,99.99
2017-06-11T02:21:52.501Z,99.99
2017-06-11T02:23:02.758Z,99.99
2017-06-11T02:24:13.017Z,99.99
2017-06-11T02:25:23.282Z,99.99
2017-06-11T02:26:33.541Z,99.99
2017-06-11T02:27:43.485Z,99.99
2017-06-11T02:28:53.744Z,99.99
2017-06-11T02:30:04.004Z,99.99
2017-06-11T02:31:14.293Z,99.99
2017-06-11T02:32:24.244Z,99.99
2017-06-11T02:33:34.505Z,99.99
2017-06-11T02:34:44.772Z,99.99
2017-06-11T02:35:55.032Z,99.99
2017-06-11T02:37:05.300Z,99.99
2017-06-11T02:38:15.562Z,99.99
2017-06-11T02:39:25.836Z,99.99
2017-06-11T02:40:36.096Z,99.99
2017-06-11T02:41:46.047Z,99.99
2017-06-11T02:42:56.312Z,99.99
2017-06-11T02:44:06.576Z,99.99
2017-06-11T02:45:16.519Z,99.99
2017-06-11T02:46:26.459Z,99.99
2017-06-11T02:47:36.720Z,99.99
2017-06-11T02:48:46.984Z,99.99
2017-06-11T02:49:56.954Z,99.99
2017-06-11T02:51:07.216Z,99.99
2017-06-11T02:52:17.474Z,99.99
2017-06-11T02:53:27.735Z,99.99
2017-06-11T02:54:37.997Z,99.99
2017-06-11T02:55:48.263Z,99.99
2017-06-11T02:56:58.524Z,99.99
2017-06-11T02:58:08.466Z,99.99
2017-06-11T02:59:18.411Z,99.99
2017-06-11T03:00:28.693Z,99.99
2017-06-11T03:01:38.654Z,99.99
2017-06-11T03:02:48.915Z,99.99
2017-06-11T03:03:59.170Z,99.99
2017-06-11T03:05:09.431Z,99.99
2017-06-11T03:06:19.381Z,99.99
2017-06-11T03:07:29.635Z,99.99
2017-06-11T03:08:39.897Z,99.99
2017-06-11T03:09:50.167Z,99.99
2017-06-11T03:11:00.117Z,99.99
2017-06-11T03:12:10.376Z,99.99
2017-06-11T03:13:20.323Z,99.99
2017-06-11T03:14:30.582Z,99.99
2017-06-11T03:15:40.526Z,99.99
2017-06-11T03:16:50.477Z,99.99
2017-06-11T03:18:00.741Z,99.99
2017-06-11T03:19:10.373Z,99.99
2017-06-11T03:20:20.636Z,99.99
2017-06-11T03:21:30.893Z,99.99
2017-06-11T03:22:40.843Z,99.99
2017-06-11T03:23:51.102Z,99.99
2017-06-11T03:25:01.365Z,99.99
2017-06-11T03:26:11.630Z,99.99
2017-06-11T03:27:21.884Z,99.99
2017-06-11T03:28:32.149Z,99.99
2017-06-11T03:29:42.417Z,99.99
2017-06-11T03:30:52.671Z,99.99
2017-06-11T03:32:02.934Z,99.99
2017-06-11T03:33:12.876Z,99.99
2017-06-11T03:34:23.141Z,99.99
2017-06-11T03:35:33.411Z,99.99
2017-06-11T03:36:43.684Z,99.99
2017-06-11T03:37:53.939Z,99.99
2017-06-11T03:39:04.204Z,99.99
2017-06-11T03:40:14.466Z,99.99
2017-06-11T03:41:24.721Z,99.99
2017-06-11T03:42:34.979Z,99.99
2017-06-11T03:43:45.247Z,99.99
2017-06-11T03:44:55.192Z,99.99
2017-06-11T03:46:05.142Z,99.99
2017-06-11T03:47:14.778Z,99.99
2017-06-11T03:48:24.732Z,99.99
2017-06-11T03:49:34.679Z,99.99
2017-06-11T03:50:44.624Z,99.99
2017-06-11T03:51:54.890Z,99.99
2017-06-11T03:53:05.150Z,99.99
2017-06-11T03:54:15.099Z,99.99
2017-06-11T03:55:25.373Z,99.99
2017-06-11T03:56:35.320Z,99.99
2017-06-11T03:57:45.585Z,99.99
2017-06-11T03:58:55.534Z,99.99
2017-06-11T04:00:05.833Z,99.99
2017-06-11T04:01:16.093Z,99.99
2017-06-11T04:02:26.356Z,99.99
2017-06-11T04:03:36.332Z,99.99
2017-06-11T04:04:46.599Z,99.99
2017-06-11T04:05:56.889Z,99.99
2017-06-11T04:07:07.160Z,99.99
2017-06-11T04:08:17.422Z,99.99
2017-06-11T04:09:27.373Z,99.99
2017-06-11T04:10:37.641Z,99.99
2017-06-11T04:11:47.616Z,99.99
2017-06-11T04:12:57.882Z,99.99
2017-06-11T04:14:07.826Z,99.99
2017-06-11T04:15:18.087Z,99.99
2017-06-11T04:16:28.354Z,99.99
2017-06-11T04:17:38.648Z,99.09
2017-06-11T04:18:48.909Z,99.28
2017-06-11T04:19:59.171Z,98.52
2017-06-11T04:21:09.125Z,98.9
2017-06-11T04:22:19.392Z,99.14
2017-06-11T04:23:29.655Z,97.9
2017-06-11T04:24:39.608Z,97.9
2017-06-11T04:25:49.248Z,97.13
2017-06-11T04:26:59.504Z,96.56
2017-06-11T04:28:09.455Z,96.08
2017-06-11T04:29:19.407Z,96.94
2017-06-11T04:30:29.669Z,96.56
2017-06-11T04:31:39.619Z,96.66
2017-06-11T04:32:49.571Z,96.75
2017-06-11T04:33:59.833Z,96.94
2017-06-11T04:35:09.467Z,95.89
2017-06-11T04:36:19.723Z,95.51
2017-06-11T04:37:29.985Z,94.55
2017-06-11T04:38:40.251Z,96.56
2017-06-11T04:39:50.203Z,94.84
2017-06-11T04:41:00.465Z,93.6
2017-06-11T04:42:10.415Z,94.36
2017-06-11T04:43:20.672Z,94.07
2017-06-11T04:44:30.968Z,95.22
2017-06-11T04:45:40.912Z,94.55
2017-06-11T04:46:51.176Z,95.03
2017-06-11T04:48:01.454Z,95.12
2017-06-11T04:49:11.719Z,95.32
2017-06-11T04:50:21.982Z,95.89
2017-06-11T04:51:32.249Z,96.56
2017-06-11T04:52:42.510Z,96.18
2017-06-11T04:53:52.466Z,95.41
2017-06-11T04:55:02.727Z,94.84
2017-06-11T04:56:12.995Z,94.93
2017-06-11T04:57:23.267Z,95.12
2017-06-11T04:58:33.226Z,94.93
2017-06-11T04:59:43.487Z,94.55
2017-06-11T05:00:53.751Z,94.65
2017-06-11T05:02:04.016Z,94.55
2017-06-11T05:03:14.280Z,94.93
2017-06-11T05:04:24.540Z,94.26
2017-06-11T05:05:34.482Z,94.84
2017-06-11T05:06:44.423Z,94.65
2017-06-11T05:07:54.692Z,94.74
2017-06-11T05:09:04.641Z,95.32
2017-06-11T05:10:14.908Z,96.08
2017-06-11T05:11:25.173Z,95.7
2017-06-11T05:12:35.435Z,95.94
2017-06-11T05:13:45.386Z,96.03
2017-06-11T05:14:55.662Z,96.47
2017-06-11T05:16:05.616Z,96.18
2017-06-11T05:17:15.568Z,96.61
2017-06-11T05:18:25.830Z,95.89
2017-06-11T05:19:36.094Z,96.42
2017-06-11T05:20:46.361Z,96.13
2017-06-11T05:21:56.636Z,96.13
2017-06-11T05:23:06.901Z,96.08
2017-06-11T05:24:17.169Z,95.7
2017-06-11T05:25:27.435Z,95.89
2017-06-11T05:26:36.755Z,96.7
2017-06-11T05:27:47.020Z,96.47
2017-06-11T05:28:57.282Z,96.75
2017-06-11T05:30:07.550Z,96.08
2017-06-11T05:31:17.811Z,95.89
2017-06-11T05:32:28.068Z,95.7
2017-06-11T05:33:38.332Z,96.66
2017-06-11T05:34:47.965Z,96.66
2017-06-11T05:35:58.222Z,96.75
2017-06-11T05:37:08.171Z,96.18
2017-06-11T05:38:18.441Z,97.04
2017-06-11T05:39:28.702Z,96.84
2017-06-11T05:40:38.649Z,96.66
2017-06-11T05:41:48.912Z,95.89
2017-06-11T05:42:59.190Z,96.08
2017-06-11T05:44:09.447Z,96.08
2017-06-11T05:45:19.713Z,96.22
2017-06-11T05:46:29.665Z,96.32
2017-06-11T05:47:39.941Z,95.7
2017-06-11T05:48:49.888Z,95.46
2017-06-11T05:50:00.148Z,95.07
2017-06-11T05:51:10.428Z,95.46
2017-06-11T05:52:20.691Z,95.84
2017-06-11T05:53:30.954Z,96.13
2017-06-11T05:54:40.904Z,95.94
2017-06-11T05:55:51.163Z,95.65
2017-06-11T05:57:01.427Z,95.56
2017-06-11T05:58:11.688Z,95.36
2017-06-11T05:59:21.949Z,94.98
2017-06-11T06:00:32.214Z,94.98
2017-06-11T06:01:41.850Z,94.89
2017-06-11T06:02:51.490Z,94.31
2017-06-11T06:04:01.442Z,93.93
2017-06-11T06:05:11.390Z,93.26
2017-06-11T06:06:21.659Z,93.16
2017-06-11T06:07:31.928Z,92.97
2017-06-11T06:08:42.193Z,93.64
2017-06-11T06:09:52.142Z,93.45
2017-06-11T06:11:02.405Z,93.12
2017-06-11T06:12:12.666Z,93.5
2017-06-11T06:13:22.938Z,93.59
2017-06-11T06:14:33.203Z,93.4
2017-06-11T06:15:43.467Z,92.54
2017-06-11T06:16:53.733Z,92.83
2017-06-11T06:18:03.690Z,92.44
2017-06-11T06:19:13.993Z,92.54
2017-06-11T06:20:23.940Z,92.63
2017-06-11T06:21:34.212Z,92.35
2017-06-11T06:22:44.473Z,92.3
2017-06-11T06:23:54.422Z,91.53
2017-06-11T06:25:04.705Z,91.92
2017-06-11T06:26:14.969Z,91.82
2017-06-11T06:27:25.230Z,91.05
2017-06-11T06:28:35.188Z,91.05
2017-06-11T06:29:45.466Z,91.05
2017-06-11T06:30:55.417Z,90.58
2017-06-11T06:32:05.691Z,90.29
2017-06-11T06:33:15.958Z,89.62
2017-06-11T06:34:26.228Z,89.72
2017-06-11T06:35:36.495Z,90.33
2017-06-11T06:36:46.439Z,89.76
2017-06-11T06:37:56.702Z,89.23
2017-06-11T06:39:06.963Z,89.18
2017-06-11T06:40:17.229Z,88.61
2017-06-11T06:41:27.495Z,89.28
2017-06-11T06:42:37.440Z,89.66
2017-06-11T06:43:47.389Z,88.23
2017-06-11T06:44:57.647Z,87.08
2017-06-11T06:46:07.911Z,87.84
2017-06-11T06:47:17.867Z,87.84
2017-06-11T06:48:27.815Z,87.27
2017-06-11T06:49:38.077Z,87.55
2017-06-11T06:50:48.342Z,88.13
2017-06-11T06:51:58.606Z,87.02
2017-06-11T06:53:08.564Z,86.93
2017-06-11T06:54:18.832Z,86.74
2017-06-11T06:55:29.117Z,87.31
2017-06-11T06:56:39.381Z,87.6
2017-06-11T06:57:49.700Z,85.39
2017-06-11T06:58:59.651Z,86.11
2017-06-11T07:00:09.608Z,86.3
2017-06-11T07:01:19.881Z,85.53
2017-06-11T07:02:30.146Z,85.72
2017-06-11T07:03:40.101Z,85.44
2017-06-11T07:04:50.370Z,86.01
2017-06-11T07:06:00.640Z,85.72
2017-06-11T07:07:10.903Z,85.15
2017-06-11T07:08:20.547Z,85.34
2017-06-11T07:09:30.822Z,86.4
2017-06-11T07:10:40.774Z,86.97
2017-06-11T07:11:51.048Z,86.45
2017-06-11T07:13:01.311Z,86.54
2017-06-11T07:14:11.578Z,86.54
2017-06-11T07:15:21.840Z,86.25
2017-06-11T07:16:32.108Z,86.54
2017-06-11T07:17:42.057Z,85.39
2017-06-11T07:18:52.320Z,86.07
2017-06-11T07:20:02.286Z,86.74
2017-06-11T07:21:12.558Z,86.54
2017-06-11T07:22:22.193Z,86.25
2017-06-11T07:23:32.470Z,86.74
2017-06-11T07:24:42.746Z,86.64
2017-06-11T07:25:53.007Z,86.93
2017-06-11T07:27:02.960Z,86.45
2017-06-11T07:28:12.909Z,85.68
2017-06-11T07:29:23.172Z,85.39
2017-06-11T07:30:33.124Z,84.91
2017-06-11T07:31:42.764Z,85.97
2017-06-11T07:32:53.035Z,85.39
2017-06-11T07:34:03.301Z,85.39
2017-06-11T07:35:12.623Z,85.58
2017-06-11T07:36:22.572Z,85.58
2017-06-11T07:37:32.860Z,85.49
2017-06-11T07:38:42.816Z,86.16
2017-06-11T07:39:53.082Z,85.68
2017-06-11T07:41:03.343Z,86.45
2017-06-11T07:42:13.301Z,86.16
2017-06-11T07:43:23.567Z,85.97
2017-06-11T07:44:33.833Z,86.54
2017-06-11T07:45:43.788Z,87.31
2017-06-11T07:46:54.051Z,87.31
2017-06-11T07:48:04.315Z,87.41
2017-06-11T07:49:14.587Z,87.5
2017-06-11T07:50:24.858Z,87.27
2017-06-11T07:51:35.128Z,86.98
2017-06-11T07:52:45.394Z,87.65
2017-06-11T07:53:55.659Z,87.84
2017-06-11T07:55:05.927Z,88.13
2017-06-11T07:56:16.195Z,88.13
2017-06-11T07:57:26.465Z,87.94
2017-06-11T07:58:36.421Z,87.94
2017-06-11T07:59:46.685Z,88.13
2017-06-11T08:00:56.952Z,87.84
2017-06-11T08:02:07.240Z,88.61
2017-06-11T08:03:17.507Z,88.8
2017-06-11T08:04:27.456Z,88.13
2017-06-11T08:05:37.725Z,88.13
2017-06-11T08:06:47.993Z,86.79
2017-06-11T08:07:58.266Z,87.37
2017-06-11T08:09:08.232Z,87.27
2017-06-11T08:10:18.501Z,87.37
2017-06-11T08:11:28.767Z,86.98
2017-06-11T08:12:38.718Z,86.98
2017-06-11T08:13:48.672Z,87.08
2017-06-11T08:14:58.935Z,87.74
2017-06-11T08:16:08.886Z,88.03
2017-06-11T08:17:19.159Z,87.74
2017-06-11T08:18:29.443Z,88.32
2017-06-11T08:19:39.709Z,86.6
2017-06-11T08:20:49.978Z,87.08
2017-06-11T08:22:00.246Z,86.41
2017-06-11T08:23:10.566Z,86.69
2017-06-11T08:24:20.835Z,86.5
2017-06-11T08:25:30.787Z,86.6
2017-06-11T08:26:40.744Z,84.58
2017-06-11T08:27:51.016Z,83.82
2017-06-11T08:29:01.284Z,83.15
2017-06-11T08:30:11.236Z,81.62
2017-06-11T08:31:21.187Z,82
2017-06-11T08:32:30.826Z,84.01
2017-06-11T08:33:41.093Z,83.05
2017-06-11T08:34:51.357Z,82.76
2017-06-11T08:36:01.621Z,82.67
2017-06-11T08:37:11.888Z,80.94
2017-06-11T08:38:22.155Z,81.04
2017-06-11T08:39:32.419Z,81.33
2017-06-11T08:40:42.368Z,82.48
2017-06-11T08:41:52.330Z,80.85
2017-06-11T08:43:02.611Z,81.52
2017-06-11T08:44:12.876Z,81.52
2017-06-11T08:45:23.142Z,81.13
2017-06-11T08:46:33.413Z,80.27
2017-06-11T08:47:43.053Z,82.57
2017-06-11T08:48:53.318Z,82.76
2017-06-11T08:50:03.577Z,82.57
2017-06-11T08:51:13.842Z,83.2
2017-06-11T08:52:24.108Z,83.63
2017-06-11T08:53:34.056Z,84.74
2017-06-11T08:54:44.022Z,84.92
2017-06-11T08:55:54.290Z,84.39
2017-06-11T08:57:04.556Z,85.06
2017-06-11T08:58:14.821Z,84.45
2017-06-11T08:59:25.082Z,83.78
2017-06-11T09:00:35.344Z,84.45
2017-06-11T09:01:45.298Z,85.41
2017-06-11T09:02:55.561Z,84.64
2017-06-11T09:04:05.830Z,84.64
2017-06-11T09:05:15.784Z,83.11
2017-06-11T09:06:26.058Z,83.97
2017-06-11T09:07:36.004Z,84.16
2017-06-11T09:08:45.965Z,84.74
2017-06-11T09:09:55.913Z,83.97
2017-06-11T09:11:05.863Z,83.97
2017-06-11T09:12:16.127Z,84.92
2017-06-11T09:13:26.077Z,86.27
2017-06-11T09:14:36.336Z,86.74
2017-06-11T09:15:46.285Z,86.04
2017-06-11T09:16:56.550Z,87.08
2017-06-11T09:18:06.816Z,86.04
2017-06-11T09:19:16.768Z,85.94
2017-06-11T09:20:27.034Z,86.41
2017-06-11T09:21:36.686Z,86.61
2017-06-11T09:22:46.635Z,87.47
2017-06-11T09:23:56.596Z,86.8
2017-06-11T09:25:06.859Z,87.27
2017-06-11T09:26:16.812Z,86.99
2017-06-11T09:27:26.761Z,86.9
2017-06-11T09:28:36.706Z,87.76
2017-06-11T09:29:46.683Z,87.9
2017-06-11T09:30:56.949Z,87.32
2017-06-11T09:32:07.212Z,88.28
2017-06-11T09:33:17.474Z,88.47
2017-06-11T09:34:27.741Z,87.32
2017-06-11T09:35:37.695Z,86.94
2017-06-11T09:36:47.967Z,86.55
2017-06-11T09:37:57.915Z,86.5
2017-06-11T09:39:08.173Z,86.02
2017-06-11T09:40:18.437Z,87.55
2017-06-11T09:41:28.697Z,87.17
2017-06-11T09:42:38.649Z,85.06
2017-06-11T09:43:48.598Z,85.35
2017-06-11T09:44:58.862Z,86.41
2017-06-11T09:46:09.131Z,85.83
2017-06-11T09:47:19.084Z,85.39
2017-06-11T09:48:29.027Z,83.67
2017-06-11T09:49:38.974Z,84.53
2017-06-11T09:50:49.237Z,84.91
2017-06-11T09:51:59.508Z,83.95
2017-06-11T09:53:09.782Z,85.35
2017-06-11T09:54:20.043Z,83.63
2017-06-11T09:55:30.321Z,84.01
2017-06-11T09:56:40.269Z,84.49
2017-06-11T09:57:50.220Z,85.25
2017-06-11T09:59:00.484Z,85.64
2017-06-11T10:00:10.744Z,86.5
2017-06-11T10:01:21.021Z,86.12
2017-06-11T10:02:31.340Z,84.78
2017-06-11T10:03:41.605Z,85.45
2017-06-11T10:04:51.251Z,86.02
2017-06-11T10:06:01.214Z,86.21
2017-06-11T10:07:11.479Z,86.65
2017-06-11T10:08:21.745Z,87.23
2017-06-11T10:09:32.033Z,86.46
2017-06-11T10:10:42.296Z,86.55
2017-06-11T10:11:52.561Z,87.23
2017-06-11T10:13:02.821Z,87.8
2017-06-11T10:14:13.082Z,87.99
2017-06-11T10:15:23.348Z,88.18
2017-06-11T10:16:33.612Z,87.9
2017-06-11T10:17:43.564Z,86.65
2017-06-11T10:18:53.516Z,86.94
2017-06-11T10:20:03.471Z,86.84
2017-06-11T10:21:13.731Z,87.03
2017-06-11T10:22:23.995Z,87.7
2017-06-11T10:23:34.289Z,88.04
2017-06-11T10:24:44.547Z,88.23
2017-06-11T10:25:54.809Z,87.95
2017-06-11T10:27:04.765Z,88.66
2017-06-11T10:28:15.024Z,87.85
2017-06-11T10:29:25.286Z,88.04
2017-06-11T10:30:35.550Z,88.52
2017-06-11T10:31:45.499Z,88.04
2017-06-11T10:32:55.444Z,88.04
2017-06-11T10:34:05.079Z,88.9
2017-06-11T10:35:15.349Z,89
2017-06-11T10:36:25.301Z,88.04
2017-06-11T10:37:35.247Z,87.85
2017-06-11T10:38:45.505Z,88.9
2017-06-11T10:39:55.769Z,88.28
2017-06-11T10:41:05.399Z,89.19
2017-06-11T10:42:15.662Z,89.62
2017-06-11T10:43:25.928Z,89.72
2017-06-11T10:44:36.195Z,87.99
2017-06-11T10:45:45.827Z,87.95
2017-06-11T10:46:56.093Z,88.13
2017-06-11T10:48:06.045Z,87.56
2017-06-11T10:49:15.997Z,88.52
2017-06-11T10:50:26.266Z,88.81
2017-06-11T10:51:36.216Z,89.86
2017-06-11T10:52:46.488Z,88.81
2017-06-11T10:53:56.752Z,88.52
2017-06-11T10:55:07.021Z,89.58
2017-06-11T10:56:16.978Z,89.19
2017-06-11T10:57:27.252Z,88.81
2017-06-11T10:58:37.513Z,88.43
2017-06-11T10:59:47.463Z,89.52
2017-06-11T11:00:57.731Z,89.72
2017-06-11T11:02:07.994Z,88.47
2017-06-11T11:03:18.261Z,88.56
2017-06-11T11:04:28.210Z,87.99
2017-06-11T11:05:38.154Z,88.37
2017-06-11T11:06:48.105Z,88.28
2017-06-11T11:07:58.381Z,88.95
2017-06-11T11:09:08.640Z,87.99
2017-06-11T11:10:18.902Z,87.8
2017-06-11T11:11:29.168Z,87.8
2017-06-11T11:12:39.435Z,87.99
2017-06-11T11:13:49.385Z,88.09
2017-06-11T11:14:59.651Z,87.95
2017-06-11T11:16:09.911Z,88.23
2017-06-11T11:17:20.168Z,88.13
2017-06-11T11:18:30.432Z,88.13
2017-06-11T11:19:40.693Z,88.04
2017-06-11T11:20:50.640Z,88.62
2017-06-11T11:22:00.586Z,88.04
2017-06-11T11:23:10.855Z,89.86
2017-06-11T11:24:21.136Z,89.38
2017-06-11T11:25:31.083Z,89.86
2017-06-11T11:26:41.346Z,89.19
2017-06-11T11:27:51.297Z,89.67
2017-06-11T11:29:01.243Z,90.34
2017-06-11T11:30:11.193Z,90.44
2017-06-11T11:31:21.447Z,90.44
2017-06-11T11:32:31.074Z,90.39
2017-06-11T11:33:41.326Z,91.39
2017-06-11T11:34:51.306Z,90.44
2017-06-11T11:36:00.937Z,91.63
2017-06-11T11:37:11.201Z,90.96
2017-06-11T11:38:21.459Z,92.11
2017-06-11T11:39:31.421Z,92.21
2017-06-11T11:40:41.364Z,92.97
2017-06-11T11:41:51.313Z,92.3
2017-06-11T11:43:01.254Z,93.26
2017-06-11T11:44:11.513Z,92.97
2017-06-11T11:45:21.458Z,93.07
2017-06-11T11:46:31.406Z,93.45
2017-06-11T11:47:41.671Z,93.21
2017-06-11T11:48:51.621Z,93.5
2017-06-11T11:50:01.568Z,93.31
2017-06-11T11:51:11.828Z,94.17
2017-06-11T11:52:22.093Z,94.46
2017-06-11T11:53:32.348Z,94.26
2017-06-11T11:54:42.614Z,95.32
2017-06-11T11:55:52.560Z,95.41
2017-06-11T11:57:02.823Z,94.74
2017-06-11T11:58:12.764Z,94.46
2017-06-11T11:59:22.077Z,94.84
2017-06-11T12:00:32.334Z,94.36
2017-06-11T12:01:42.597Z,94.84
2017-06-11T12:02:52.859Z,94.74
2017-06-11T12:04:02.800Z,95.51
2017-06-11T12:05:12.746Z,95.61
2017-06-11T12:06:23.001Z,95.41
2017-06-11T12:07:32.946Z,95.22
2017-06-11T12:08:43.205Z,94.84
2017-06-11T12:09:53.157Z,95.51
2017-06-11T12:11:03.103Z,95.61
2017-06-11T12:12:13.049Z,95.41
2017-06-11T12:13:23.338Z,95.32
2017-06-11T12:14:33.602Z,95.61
2017-06-11T12:15:43.231Z,95.7
2017-06-11T12:16:53.488Z,94.74
2017-06-11T12:18:03.741Z,95.03
2017-06-11T12:19:14.001Z,94.36
2017-06-11T12:20:24.257Z,94.26
2017-06-11T12:21:34.517Z,94.07
2017-06-11T12:22:44.145Z,94.12
2017-06-11T12:23:54.094Z,94.02
2017-06-11T12:25:04.348Z,94.02
2017-06-11T12:26:14.618Z,93.45
2017-06-11T12:27:24.881Z,93.35
2017-06-11T12:28:35.143Z,93.26
2017-06-11T12:29:45.399Z,94.12
2017-06-11T12:30:55.345Z,94.12
2017-06-11T12:32:05.294Z,94.41
2017-06-11T12:33:15.559Z,93.93
2017-06-11T12:34:25.819Z,92.97
2017-06-11T12:35:36.079Z,92.97
2017-06-11T12:36:46.338Z,93.55
2017-06-11T12:37:56.292Z,93.35
2017-06-11T12:39:06.249Z,93.84
2017-06-11T12:40:16.192Z,93.07
2017-06-11T12:41:26.451Z,93.16
2017-06-11T12:42:36.719Z,92.83
2017-06-11T12:43:46.977Z,92.63
2017-06-11T12:44:57.237Z,93.21
2017-06-11T12:46:07.174Z,93.4
2017-06-11T12:47:17.124Z,93.3
2017-06-11T12:48:27.383Z,93.59
2017-06-11T12:49:37.641Z,91.97
2017-06-11T12:50:47.896Z,91.01
2017-06-11T12:51:57.845Z,91.77
2017-06-11T12:53:08.106Z,92.16
2017-06-11T12:54:18.370Z,92.54
2017-06-11T12:55:28.625Z,92.68
2017-06-11T12:56:38.578Z,92.68
2017-06-11T12:57:49.037Z,91.44
2017-06-11T12:58:59.302Z,90.19
2017-06-11T13:00:09.562Z,90.58
2017-06-11T13:01:19.833Z,92.01
2017-06-11T13:02:30.101Z,92.11
2017-06-11T13:03:40.363Z,91.92
2017-06-11T13:04:50.625Z,92.4
2017-06-11T13:06:00.260Z,92.3
2017-06-11T13:07:10.210Z,92.58
2017-06-11T13:08:20.158Z,92.06
2017-06-11T13:09:30.108Z,92.06
2017-06-11T13:10:39.745Z,92.06
2017-06-11T13:11:49.377Z,92.25
2017-06-11T13:12:59.324Z,92.16
2017-06-11T13:14:09.593Z,92.25
2017-06-11T13:15:19.538Z,92.83
2017-06-11T13:16:29.793Z,93.3
2017-06-11T13:17:40.052Z,93.02
2017-06-11T13:18:50.003Z,93.3
2017-06-11T13:20:00.269Z,92.83
2017-06-11T13:21:10.536Z,92.73
2017-06-11T13:22:20.802Z,92.44
2017-06-11T13:23:30.751Z,93.4
2017-06-11T13:24:41.013Z,93.16
2017-06-11T13:25:51.273Z,93.35
2017-06-11T13:27:01.535Z,92.49
2017-06-11T13:28:11.794Z,92.59
2017-06-11T13:29:21.745Z,93.07
2017-06-11T13:30:32.004Z,93.45
2017-06-11T13:31:42.271Z,93.26
2017-06-11T13:32:52.220Z,92.88
2017-06-11T13:34:02.163Z,93.45
2017-06-11T13:35:12.422Z,93.35
2017-06-11T13:36:22.686Z,93.64
2017-06-11T13:37:32.630Z,93.45
2017-06-11T13:38:42.582Z,92.69
2017-06-11T13:39:52.214Z,92.97
2017-06-11T13:41:02.476Z,91.83
2017-06-11T13:42:12.737Z,91.63
2017-06-11T13:43:22.995Z,92.4
2017-06-11T13:44:33.306Z,91.83
2017-06-11T13:45:43.594Z,91.92
2017-06-11T13:46:53.861Z,92.49
2017-06-11T13:48:04.132Z,92.49
2017-06-11T13:49:14.079Z,92.02
2017-06-11T13:50:24.333Z,91.73
2017-06-11T13:51:34.596Z,92.11
2017-06-11T13:52:44.262Z,92.88
2017-06-11T13:53:54.229Z,93.55
2017-06-11T13:55:04.180Z,94.21
2017-06-11T13:56:14.443Z,93.16
2017-06-11T13:57:24.709Z,92.69
2017-06-11T13:58:34.966Z,92.49
2017-06-11T13:59:45.229Z,93.16
2017-06-11T14:00:55.482Z,93.16
2017-06-11T14:02:05.742Z,93.35
2017-06-11T14:03:15.692Z,92.97
2017-06-11T14:04:25.638Z,93.16
2017-06-11T14:05:35.276Z,93.55
2017-06-11T14:06:45.224Z,93.84
2017-06-11T14:07:55.179Z,93.16
2017-06-11T14:09:05.117Z,93.07
2017-06-11T14:10:15.375Z,94.31
2017-06-11T14:11:25.324Z,93.74
2017-06-11T14:12:35.584Z,93.64
2017-06-11T14:13:45.846Z,94.21
2017-06-11T14:14:56.101Z,93.84
2017-06-11T14:16:06.357Z,94.31
2017-06-11T14:17:16.620Z,94.12
2017-06-11T14:18:26.879Z,94.41
2017-06-11T14:19:37.135Z,93.35
2017-06-11T14:20:47.400Z,94.21
2017-06-11T14:21:57.660Z,93.45
2017-06-11T14:23:07.605Z,92.97
2017-06-11T14:24:17.563Z,92.59
2017-06-11T14:25:27.507Z,93.07
2017-06-11T14:26:37.770Z,94.21
2017-06-11T14:27:48.029Z,92.97
2017-06-11T14:28:57.660Z,93.35
2017-06-11T14:30:07.925Z,92.59
2017-06-11T14:31:18.192Z,92.97
2017-06-11T14:32:28.138Z,93.07
2017-06-11T14:33:38.394Z,93.07
2017-06-11T14:34:48.646Z,93.07
2017-06-11T14:35:58.277Z,93.74
2017-06-11T14:37:08.537Z,93.45
2017-06-11T14:38:18.815Z,93.26
2017-06-11T14:39:29.080Z,93.84
2017-06-11T14:40:39.336Z,94.12
2017-06-11T14:41:49.599Z,94.79
2017-06-11T14:42:59.541Z,93.93
2017-06-11T14:44:09.815Z,94.12
2017-06-11T14:45:20.077Z,94.31
2017-06-11T14:46:30.335Z,94.5
2017-06-11T14:47:40.602Z,94.79
2017-06-11T14:48:50.861Z,94.12
2017-06-11T14:50:01.117Z,94.31
2017-06-11T14:51:11.061Z,94.31
2017-06-11T14:52:21.324Z,94.12
2017-06-11T14:53:31.581Z,94.21
2017-06-11T14:54:41.842Z,93.93
2017-06-11T14:55:52.099Z,94.12
2017-06-11T14:57:01.730Z,93.35
2017-06-11T14:58:11.996Z,92.49
2017-06-11T14:59:21.944Z,93.55
2017-06-11T15:00:31.900Z,93.84
2017-06-11T15:01:42.154Z,93.74
2017-06-11T15:02:52.410Z,92.97
2017-06-11T15:04:02.367Z,93.16
2017-06-11T15:05:12.312Z,93.45